Menu Horizontal
luftaufnahme
Willkommen auf der Webseite der privaten Wetterstation -- Taufkirchen an der Pram -- 48°24'29,52" Nord  <>  13°32'13,20" Ost

Wetterdaten - Montag, 19.08.2019 - Taufkirchen an der Pram     336 m über NN
Wetterdaten: aktuell Montag, 19.08.2019 23:40
Datum Zeit Temp. A. Feuchte A. Luftdruck Regen Wind Sonnenschein UV Solar Windchill Empfang
19.08.2019 23:40 17,4 °C 92 % 1018,8 hPa 0,0 l/m² 0,0 km/h 0 min 0,0 UV-I 0 W/m² 17,4 °C 100 %
19.08.2019 23:30 17,4 °C 91 % 1018,9 hPa 0,0 l/m² 0,0 km/h 0 min 0,0 UV-I 0 W/m² 17,4 °C 100 %
19.08.2019 23:20 17,5 °C 91 % 1018,9 hPa 0,0 l/m² 0,0 km/h 0 min 0,0 UV-I 0 W/m² 17,5 °C 100 %
19.08.2019 23:10 17,6 °C 91 % 1018,9 hPa 0,0 l/m² 0,0 km/h 0 min 0,0 UV-I 0 W/m² 17,6 °C 100 %
19.08.2019 23:00 17,8 °C 91 % 1018,9 hPa 0,0 l/m² 0,0 km/h 0 min 0,0 UV-I 0 W/m² 17,8 °C 100 %
19.08.2019 22:50 17,9 °C 90 % 1018,7 hPa 0,0 l/m² 0,0 km/h 0 min 0,0 UV-I 0 W/m² 17,9 °C 100 %
19.08.2019 22:40 18,2 °C 90 % 1018,8 hPa 0,0 l/m² 0,0 km/h 0 min 0,0 UV-I 0 W/m² 18,2 °C 100 %
19.08.2019 22:30 18,3 °C 89 % 1018,8 hPa 0,0 l/m² 0,0 km/h 0 min 0,0 UV-I 0 W/m² 18,3 °C 99 %
19.08.2019 22:20 18,6 °C 88 % 1018,7 hPa 0,0 l/m² 0,0 km/h 0 min 0,0 UV-I 0 W/m² 18,6 °C 100 %
19.08.2019 22:10 18,7 °C 87 % 1018,8 hPa 0,0 l/m² 0,0 km/h 0 min 0,0 UV-I 0 W/m² 18,7 °C 100 %
19.08.2019 22:00 18,8 °C 86 % 1018,7 hPa 0,0 l/m² 0,0 km/h 0 min 0,0 UV-I 0 W/m² 18,8 °C 100 %
19.08.2019 21:50 19,1 °C 86 % 1018,6 hPa 0,0 l/m² 0,0 km/h 0 min 0,0 UV-I 0 W/m² 19,1 °C 100 %
19.08.2019 21:40 19,3 °C 86 % 1018,4 hPa 0,0 l/m² 0,0 km/h 0 min 0,0 UV-I 0 W/m² 19,3 °C 100 %
19.08.2019 21:30 19,6 °C 85 % 1018,5 hPa 0,0 l/m² 0,0 km/h 0 min 0,0 UV-I 0 W/m² 19,6 °C 100 %
19.08.2019 21:20 20,1 °C 84 % 1018,4 hPa 0,0 l/m² 0,0 km/h 0 min 0,0 UV-I 0 W/m² 20,1 °C 100 %
19.08.2019 21:10 20,3 °C 83 % 1018,4 hPa 0,0 l/m² 0,0 km/h 0 min 0,0 UV-I 0 W/m² 20,3 °C 100 %
19.08.2019 21:00 20,9 °C 81 % 1018,2 hPa 0,0 l/m² 0,0 km/h 0 min 0,0 UV-I 0 W/m² 20,9 °C 99 %
19.08.2019 20:50 21,3 °C 79 % 1018,1 hPa 0,0 l/m² 0,0 km/h 0 min 0,0 UV-I 0 W/m² 21,3 °C 99 %
19.08.2019 20:40 21,9 °C 77 % 1017,9 hPa 0,0 l/m² 0,0 km/h 0 min 0,0 UV-I 0 W/m² 21,9 °C 100 %
19.08.2019 20:30 22,3 °C 75 % 1017,8 hPa 0,0 l/m² 0,0 km/h 0 min 0,0 UV-I 0 W/m² 22,3 °C 100 %
19.08.2019 20:20 22,7 °C 73 % 1017,5 hPa 0,0 l/m² 0,0 km/h 0 min 0,0 UV-I 0 W/m² 22,7 °C 100 %
19.08.2019 20:10 23,1 °C 73 % 1017,5 hPa 0,0 l/m² 0,0 km/h 0 min 0,0 UV-I 5 W/m² 23,1 °C 100 %
19.08.2019 20:00 23,3 °C 71 % 1017,4 hPa 0,0 l/m² 0,0 km/h 0 min 0,0 UV-I 9 W/m² 23,3 °C 100 %
19.08.2019 19:50 23,7 °C 70 % 1017,3 hPa 0,0 l/m² 0,0 km/h 0 min 0,0 UV-I 13 W/m² 23,7 °C 100 %
19.08.2019 19:40 23,8 °C 68 % 1017,2 hPa 0,0 l/m² 0,0 km/h 0 min 0,0 UV-I 24 W/m² 23,8 °C 100 %
19.08.2019 19:30 23,9 °C 69 % 1017,2 hPa 0,0 l/m² 0,0 km/h 0 min 0,0 UV-I 36 W/m² 23,9 °C 100 %
19.08.2019 19:20 24,0 °C 69 % 1017,3 hPa 0,0 l/m² 0,0 km/h 0 min 0,0 UV-I 62 W/m² 24,0 °C 100 %
19.08.2019 19:10 24,1 °C 70 % 1017,3 hPa 0,0 l/m² 0,0 km/h 0 min 0,0 UV-I 79 W/m² 24,1 °C 100 %
19.08.2019 19:00 24,2 °C 71 % 1017,2 hPa 0,0 l/m² 0,0 km/h 0 min 0,0 UV-I 98 W/m² 24,2 °C 100 %
19.08.2019 18:50 24,1 °C 71 % 1017,2 hPa 0,0 l/m² 0,0 km/h 10 min 0,5 UV-I 118 W/m² 24,1 °C 100 %
19.08.2019 18:40 24,3 °C 71 % 1017,1 hPa 0,0 l/m² 0,0 km/h 10 min 0,4 UV-I 114 W/m² 24,3 °C 100 %
19.08.2019 18:30 24,6 °C 70 % 1016,9 hPa 0,0 l/m² 0,0 km/h 0 min 0,1 UV-I 90 W/m² 24,6 °C 99 %
19.08.2019 18:20 24,8 °C 69 % 1016,8 hPa 0,0 l/m² 0,0 km/h 0 min 0,5 UV-I 89 W/m² 24,8 °C 100 %
19.08.2019 18:10 24,7 °C 68 % 1016,9 hPa 0,0 l/m² 0,0 km/h 0 min 0,6 UV-I 96 W/m² 24,7 °C 100 %
19.08.2019 18:00 24,4 °C 69 % 1016,9 hPa 0,0 l/m² 0,0 km/h 10 min 0,8 UV-I 166 W/m² 24,4 °C 100 %
19.08.2019 17:50 24,5 °C 69 % 1017,0 hPa 0,0 l/m² 0,0 km/h 10 min 0,6 UV-I 129 W/m² 24,5 °C 100 %
19.08.2019 17:40 24,8 °C 67 % 1017,1 hPa 0,0 l/m² 0,0 km/h 0 min 0,6 UV-I 95 W/m² 24,8 °C 100 %
19.08.2019 17:30 25,2 °C 66 % 1017,0 hPa 0,0 l/m² 0,0 km/h 0 min 0,7 UV-I 96 W/m² 25,2 °C 100 %
19.08.2019 17:20 25,3 °C 61 % 1017,3 hPa 0,0 l/m² 0,0 km/h 0 min 0,7 UV-I 99 W/m² 25,3 °C 100 %
19.08.2019 17:10 25,8 °C 61 % 1017,3 hPa 0,0 l/m² 0,1 km/h 10 min 0,9 UV-I 130 W/m² 25,8 °C 100 %
19.08.2019 17:00 26,0 °C 60 % 1017,1 hPa 0,0 l/m² 0,0 km/h 10 min 1,1 UV-I 156 W/m² 26,0 °C 99 %
19.08.2019 16:50 26,1 °C 59 % 1017,1 hPa 0,0 l/m² 0,0 km/h 10 min 1,7 UV-I 242 W/m² 26,1 °C 100 %
19.08.2019 16:40 26,2 °C 59 % 1017,2 hPa 0,0 l/m² 0,7 km/h 10 min 2,3 UV-I 378 W/m² 26,2 °C 98 %
19.08.2019 16:30 25,7 °C 62 % 1017,2 hPa 0,0 l/m² 0,1 km/h 10 min 2,6 UV-I 437 W/m² 25,7 °C 99 %
19.08.2019 16:20 25,2 °C 62 % 1017,3 hPa 0,0 l/m² 0,0 km/h 10 min 1,7 UV-I 229 W/m² 25,2 °C 100 %
19.08.2019 16:10 25,3 °C 61 % 1017,2 hPa 0,0 l/m² 0,0 km/h 10 min 1,5 UV-I 185 W/m² 25,3 °C 99 %
19.08.2019 16:00 25,6 °C 63 % 1017,2 hPa 0,0 l/m² 0,0 km/h 10 min 1,7 UV-I 199 W/m² 25,6 °C 100 %
19.08.2019 15:50 25,6 °C 61 % 1017,3 hPa 0,0 l/m² 0,0 km/h 10 min 2,0 UV-I 232 W/m² 25,6 °C 100 %
19.08.2019 15:40 25,6 °C 61 % 1017,4 hPa 0,0 l/m² 0,1 km/h 10 min 2,8 UV-I 345 W/m² 25,6 °C 100 %
19.08.2019 15:30 25,3 °C 62 % 1017,4 hPa 0,0 l/m² 0,3 km/h 10 min 3,2 UV-I 357 W/m² 25,3 °C 100 %
19.08.2019 15:20 25,4 °C 61 % 1017,5 hPa 0,0 l/m² 0,7 km/h 10 min 3,8 UV-I 549 W/m² 25,4 °C 100 %
19.08.2019 15:10 25,5 °C 63 % 1017,5 hPa 0,0 l/m² 0,5 km/h 10 min 5,1 UV-I 635 W/m² 25,5 °C 100 %
19.08.2019 15:00 24,7 °C 64 % 1017,6 hPa 0,0 l/m² 0,9 km/h 10 min 4,7 UV-I 515 W/m² 24,7 °C 100 %
19.08.2019 14:50 24,6 °C 64 % 1017,6 hPa 0,0 l/m² 0,4 km/h 10 min 3,9 UV-I 395 W/m² 24,6 °C 100 %
19.08.2019 14:40 24,1 °C 67 % 1017,6 hPa 0,0 l/m² 0,1 km/h 10 min 3,4 UV-I 342 W/m² 24,1 °C 100 %
19.08.2019 14:30 24,0 °C 66 % 1017,4 hPa 0,0 l/m² 0,0 km/h 10 min 2,9 UV-I 290 W/m² 24,0 °C 99 %
19.08.2019 14:20 23,8 °C 66 % 1017,3 hPa 0,0 l/m² 0,0 km/h 10 min 2,7 UV-I 256 W/m² 23,8 °C 99 %
19.08.2019 14:10 23,5 °C 66 % 1017,4 hPa 0,0 l/m² 0,0 km/h 10 min 2,8 UV-I 257 W/m² 23,5 °C 99 %
19.08.2019 14:00 23,4 °C 67 % 1017,2 hPa 0,0 l/m² 0,9 km/h 10 min 2,7 UV-I 256 W/m² 23,4 °C 100 %
19.08.2019 13:50 23,4 °C 66 % 1017,2 hPa 0,0 l/m² 1,7 km/h 10 min 2,4 UV-I 226 W/m² 23,4 °C 100 %
19.08.2019 13:40 23,6 °C 65 % 1017,0 hPa 0,0 l/m² 1,3 km/h 10 min 3,5 UV-I 311 W/m² 23,6 °C 100 %
19.08.2019 13:30 23,6 °C 66 % 1017,1 hPa 0,0 l/m² 1,6 km/h 10 min 4,0 UV-I 369 W/m² 23,6 °C 100 %
19.08.2019 13:20 23,6 °C 66 % 1017,2 hPa 0,0 l/m² 0,5 km/h 10 min 3,8 UV-I 347 W/m² 23,6 °C 100 %
19.08.2019 13:10 23,7 °C 67 % 1017,3 hPa 0,0 l/m² 0,0 km/h 10 min 3,0 UV-I 264 W/m² 23,7 °C 100 %
19.08.2019 13:00 23,4 °C 70 % 1017,3 hPa 0,0 l/m² 0,0 km/h 10 min 3,0 UV-I 265 W/m² 23,4 °C 100 %
19.08.2019 12:50 23,1 °C 70 % 1017,3 hPa 0,0 l/m² 0,4 km/h 10 min 2,9 UV-I 265 W/m² 23,1 °C 100 %
19.08.2019 12:40 23,1 °C 68 % 1017,3 hPa 0,0 l/m² 0,0 km/h 10 min 3,1 UV-I 283 W/m² 23,1 °C 100 %
19.08.2019 12:30 22,8 °C 68 % 1017,3 hPa 0,0 l/m² 0,5 km/h 10 min 2,7 UV-I 237 W/m² 22,8 °C 100 %
19.08.2019 12:20 22,7 °C 69 % 1017,5 hPa 0,0 l/m² 0,2 km/h 10 min 2,5 UV-I 211 W/m² 22,7 °C 100 %
19.08.2019 12:10 22,4 °C 71 % 1017,5 hPa 0,0 l/m² 0,6 km/h 10 min 1,9 UV-I 174 W/m² 22,4 °C 100 %
19.08.2019 12:00 22,4 °C 70 % 1017,4 hPa 0,0 l/m² 1,9 km/h 10 min 1,5 UV-I 131 W/m² 22,4 °C 100 %
19.08.2019 11:50 22,6 °C 70 % 1017,4 hPa 0,0 l/m² 2,3 km/h 10 min 1,9 UV-I 166 W/m² 22,6 °C 100 %
19.08.2019 11:40 23,0 °C 67 % 1017,3 hPa 0,0 l/m² 2,6 km/h 10 min 1,6 UV-I 148 W/m² 23,0 °C 100 %
19.08.2019 11:30 23,9 °C 64 % 1017,3 hPa 0,0 l/m² 0,6 km/h 10 min 1,7 UV-I 159 W/m² 23,9 °C 100 %
19.08.2019 11:20 24,1 °C 65 % 1017,3 hPa 0,0 l/m² 0,3 km/h 20 min 3,0 UV-I 304 W/m² 24,1 °C 100 %
19.08.2019 11:00 24,5 °C 63 % 1017,1 hPa 0,0 l/m² 0,9 km/h 10 min 4,5 UV-I 594 W/m² 24,5 °C 100 %
19.08.2019 10:50 24,3 °C 64 % 1017,0 hPa 0,0 l/m² 0,1 km/h 10 min 3,5 UV-I 354 W/m² 24,3 °C 100 %
19.08.2019 10:40 24,3 °C 65 % 1017,1 hPa 0,0 l/m² 0,1 km/h 10 min 2,5 UV-I 269 W/m² 24,3 °C 100 %
19.08.2019 10:30 24,3 °C 64 % 1017,1 hPa 0,0 l/m² 0,2 km/h 10 min 2,7 UV-I 321 W/m² 24,3 °C 100 %
19.08.2019 10:20 23,9 °C 65 % 1016,9 hPa 0,0 l/m² 0,0 km/h 10 min 3,8 UV-I 519 W/m² 23,9 °C 100 %
19.08.2019 10:10 23,1 °C 67 % 1016,9 hPa 0,0 l/m² 0,0 km/h 10 min 2,3 UV-I 212 W/m² 23,1 °C 100 %
19.08.2019 10:00 23,3 °C 67 % 1016,9 hPa 0,0 l/m² 0,0 km/h 10 min 1,6 UV-I 186 W/m² 23,3 °C 100 %
19.08.2019 09:50 23,5 °C 67 % 1016,6 hPa 0,0 l/m² 0,0 km/h 10 min 2,0 UV-I 266 W/m² 23,5 °C 100 %
19.08.2019 09:40 23,4 °C 69 % 1016,5 hPa 0,0 l/m² 0,4 km/h 10 min 2,1 UV-I 399 W/m² 23,4 °C 100 %
19.08.2019 09:30 22,9 °C 70 % 1016,5 hPa 0,0 l/m² 1,0 km/h 10 min 2,4 UV-I 379 W/m² 22,9 °C 100 %
19.08.2019 09:20 22,5 °C 72 % 1016,9 hPa 0,0 l/m² 0,1 km/h 10 min 2,3 UV-I 476 W/m² 22,5 °C 99 %
19.08.2019 09:10 21,8 °C 74 % 1016,8 hPa 0,0 l/m² 0,2 km/h 10 min 1,9 UV-I 323 W/m² 21,8 °C 100 %
19.08.2019 09:00 21,2 °C 77 % 1017,1 hPa 0,0 l/m² 0,4 km/h 10 min 1,5 UV-I 230 W/m² 21,2 °C 100 %
19.08.2019 08:50 20,9 °C 78 % 1017,1 hPa 0,0 l/m² 0,0 km/h 10 min 1,1 UV-I 179 W/m² 20,9 °C 100 %
19.08.2019 08:40 20,6 °C 80 % 1017,1 hPa 0,0 l/m² 0,2 km/h 10 min 0,9 UV-I 144 W/m² 20,6 °C 100 %
19.08.2019 08:30 20,3 °C 80 % 1017,1 hPa 0,0 l/m² 0,1 km/h 10 min 0,9 UV-I 155 W/m² 20,3 °C 100 %
19.08.2019 08:20 20,1 °C 81 % 1017,1 hPa 0,0 l/m² 0,0 km/h 10 min 0,9 UV-I 156 W/m² 20,1 °C 100 %
19.08.2019 08:10 19,9 °C 82 % 1017,0 hPa 0,0 l/m² 0,0 km/h 10 min 0,6 UV-I 112 W/m² 19,9 °C 100 %
19.08.2019 08:00 19,8 °C 81 % 1016,8 hPa 0,0 l/m² 0,0 km/h 0 min 0,4 UV-I 91 W/m² 19,8 °C 100 %
19.08.2019 07:50 19,6 °C 81 % 1017,0 hPa 0,0 l/m² 0,0 km/h 0 min 0,0 UV-I 87 W/m² 19,6 °C 100 %
19.08.2019 07:40 19,3 °C 81 % 1016,9 hPa 0,0 l/m² 0,0 km/h 0 min 0,0 UV-I 97 W/m² 19,3 °C 100 %
19.08.2019 07:30 19,3 °C 83 % 1016,6 hPa 0,0 l/m² 0,0 km/h 0 min 0,0 UV-I 57 W/m² 19,3 °C 99 %
19.08.2019 07:20 19,3 °C 82 % 1016,7 hPa 0,0 l/m² 0,0 km/h 0 min 0,0 UV-I 27 W/m² 19,3 °C 98 %
19.08.2019 07:10 19,4 °C 80 % 1016,8 hPa 0,0 l/m² 0,0 km/h 0 min 0,0 UV-I 13 W/m² 19,4 °C 100 %
19.08.2019 07:00 19,6 °C 80 % 1016,7 hPa 0,0 l/m² 0,0 km/h 0 min 0,0 UV-I 6 W/m² 19,6 °C 100 %
19.08.2019 06:50 19,7 °C 80 % 1016,5 hPa 0,0 l/m² 0,0 km/h 0 min 0,0 UV-I 5 W/m² 19,7 °C 99 %
19.08.2019 06:40 19,8 °C 78 % 1016,4 hPa 0,0 l/m² 0,0 km/h 0 min 0,0 UV-I 6 W/m² 19,8 °C 100 %
19.08.2019 06:30 19,9 °C 78 % 1016,4 hPa 0,0 l/m² 0,0 km/h 0 min 0,0 UV-I 2 W/m² 19,9 °C 100 %
19.08.2019 06:20 20,1 °C 75 % 1016,5 hPa 0,0 l/m² 0,4 km/h 0 min 0,0 UV-I 0 W/m² 20,1 °C 100 %
19.08.2019 06:10 20,2 °C 73 % 1016,4 hPa 0,0 l/m² 1,4 km/h 0 min 0,0 UV-I 0 W/m² 20,2 °C 100 %
19.08.2019 06:00 20,4 °C 72 % 1016,7 hPa 0,0 l/m² 1,3 km/h 0 min 0,0 UV-I 0 W/m² 20,4 °C 100 %
19.08.2019 05:50 20,5 °C 71 % 1016,5 hPa 0,0 l/m² 4,1 km/h 0 min 0,0 UV-I 0 W/m² 20,5 °C 100 %
19.08.2019 05:40 20,6 °C 72 % 1016,4 hPa 0,0 l/m² 5,4 km/h 0 min 0,0 UV-I 0 W/m² 20,6 °C 100 %
19.08.2019 05:30 20,8 °C 72 % 1016,3 hPa 0,0 l/m² 6,3 km/h 0 min 0,0 UV-I 0 W/m² 20,8 °C 100 %
19.08.2019 05:20 20,9 °C 72 % 1015,8 hPa 0,0 l/m² 11,1 km/h 0 min 0,0 UV-I 0 W/m² 19,3 °C 100 %
19.08.2019 05:10 21,1 °C 73 % 1015,8 hPa 0,0 l/m² 12,8 km/h 0 min 0,0 UV-I 0 W/m² 19,1 °C 100 %
19.08.2019 05:00 21,2 °C 74 % 1015,7 hPa 0,0 l/m² 12,9 km/h 0 min 0,0 UV-I 0 W/m² 19,2 °C 100 %
19.08.2019 04:50 21,4 °C 74 % 1015,9 hPa 0,0 l/m² 13,6 km/h 0 min 0,0 UV-I 0 W/m² 19,3 °C 100 %
19.08.2019 04:40 21,6 °C 74 % 1015,7 hPa 0,0 l/m² 12,7 km/h 0 min 0,0 UV-I 0 W/m² 19,7 °C 100 %
19.08.2019 04:30 21,9 °C 73 % 1015,2 hPa 0,0 l/m² 15,2 km/h 0 min 0,0 UV-I 0 W/m² 19,5 °C 99 %
19.08.2019 04:20 21,7 °C 73 % 1015,0 hPa 0,0 l/m² 8,0 km/h 0 min 0,0 UV-I 0 W/m² 21,1 °C 100 %
19.08.2019 04:10 21,4 °C 75 % 1014,1 hPa 0,0 l/m² 7,8 km/h 0 min 0,0 UV-I 0 W/m² 20,9 °C 100 %
19.08.2019 04:00 20,8 °C 79 % 1013,7 hPa 0,0 l/m² 2,1 km/h 0 min 0,0 UV-I 0 W/m² 20,8 °C 100 %
19.08.2019 03:50 20,5 °C 80 % 1013,1 hPa 0,0 l/m² 0,3 km/h 0 min 0,0 UV-I 0 W/m² 20,5 °C 100 %
19.08.2019 03:40 20,5 °C 81 % 1012,7 hPa 0,0 l/m² 0,0 km/h 0 min 0,0 UV-I 0 W/m² 20,5 °C 100 %
19.08.2019 03:30 20,5 °C 80 % 1012,3 hPa 0,0 l/m² 0,1 km/h 0 min 0,0 UV-I 0 W/m² 20,5 °C 99 %
19.08.2019 03:20 20,6 °C 79 % 1011,9 hPa 0,0 l/m² 0,7 km/h 0 min 0,0 UV-I 0 W/m² 20,6 °C 100 %
19.08.2019 03:10 20,4 °C 80 % 1011,8 hPa 0,0 l/m² 1,6 km/h 0 min 0,0 UV-I 0 W/m² 20,4 °C 100 %
19.08.2019 03:00 20,6 °C 79 % 1011,5 hPa 0,0 l/m² 0,0 km/h 0 min 0,0 UV-I 0 W/m² 20,6 °C 100 %
19.08.2019 02:50 20,7 °C 78 % 1011,2 hPa 0,0 l/m² 0,0 km/h 0 min 0,0 UV-I 0 W/m² 20,7 °C 100 %
19.08.2019 02:40 21,0 °C 77 % 1010,8 hPa 0,0 l/m² 0,0 km/h 0 min 0,0 UV-I 0 W/m² 21,0 °C 100 %
19.08.2019 02:30 21,3 °C 76 % 1010,8 hPa 0,0 l/m² 0,0 km/h 0 min 0,0 UV-I 0 W/m² 21,3 °C 100 %
19.08.2019 02:20 21,6 °C 75 % 1010,5 hPa 0,0 l/m² 0,0 km/h 0 min 0,0 UV-I 0 W/m² 21,6 °C 100 %
19.08.2019 02:10 21,8 °C 73 % 1010,4 hPa 0,0 l/m² 0,0 km/h 0 min 0,0 UV-I 0 W/m² 21,8 °C 100 %
19.08.2019 02:00 21,9 °C 72 % 1010,3 hPa 0,0 l/m² 0,0 km/h 0 min 0,0 UV-I 0 W/m² 21,9 °C 100 %
19.08.2019 01:50 21,9 °C 72 % 1010,4 hPa 0,0 l/m² 0,0 km/h 0 min 0,0 UV-I 0 W/m² 21,9 °C 100 %
19.08.2019 01:40 21,9 °C 71 % 1010,3 hPa 0,0 l/m² 0,1 km/h 0 min 0,0 UV-I 0 W/m² 21,9 °C 100 %
19.08.2019 01:30 22,0 °C 72 % 1010,1 hPa 0,0 l/m² 0,0 km/h 0 min 0,0 UV-I 0 W/m² 22,0 °C 99 %
19.08.2019 01:20 21,9 °C 72 % 1010,1 hPa 0,0 l/m² 0,2 km/h 0 min 0,0 UV-I 0 W/m² 21,9 °C 99 %
19.08.2019 01:10 21,8 °C 72 % 1009,9 hPa 0,0 l/m² 0,7 km/h 0 min 0,0 UV-I 0 W/m² 21,8 °C 100 %
19.08.2019 01:00 21,8 °C 74 % 1009,9 hPa 0,0 l/m² 0,0 km/h 0 min 0,0 UV-I 0 W/m² 21,8 °C 100 %
19.08.2019 00:50 22,3 °C 72 % 1009,5 hPa 0,0 l/m² 0,0 km/h 0 min 0,0 UV-I 0 W/m² 22,3 °C 100 %
19.08.2019 00:40 22,7 °C 70 % 1009,3 hPa 0,0 l/m² 0,1 km/h 0 min 0,0 UV-I 0 W/m² 22,7 °C 100 %
19.08.2019 00:30 23,6 °C 67 % 1009,2 hPa 0,0 l/m² 0,0 km/h 0 min 0,0 UV-I 0 W/m² 23,6 °C 100 %
19.08.2019 00:20 23,8 °C 64 % 1009,0 hPa 0,0 l/m² 0,0 km/h 0 min 0,0 UV-I 0 W/m² 23,8 °C 100 %
19.08.2019 00:10 23,9 °C 63 % 1008,9 hPa 0,0 l/m² 0,0 km/h 0 min 0,0 UV-I 0 W/m² 23,9 °C 99 %
19.08.2019 00:00 24,2 °C 63 % 1008,8 hPa 0,0 l/m² 0,0 km/h 0 min 0,0 UV-I 0 W/m² 24,2 °C 100 %
_ Min-Zeit 23:40 16:50 00:00 - 23:40 - - - 23:40 16:40
Minimum _ 17,4 °C 59 % 1008,8 hPa - 0,0 km/h - - - 17,4 °C 98 %
_ Max-Zeit 16:40 23:40 23:30 23:40 04:30 11:20 15:10 15:10 16:40 23:30
Maximum _ 26,2 °C 92 % 1018,9 hPa 0,0 l/m² 15,2 km/h
N-NW
20 min 5,1 UV-I 635 W/m² 26,2 °C 100 %
Durchschnitt _ 22,2 °C 73 % 1016,1 hPa #0,0 l/m² 1,0 km/h #9:50 h 2,2 UV-I 123 W/m² 22,1 °C 100 %